sensor_id;sensor_type;location;lat;lon;timestamp;P1;durP1;ratioP1;P2;durP2;ratioP2
11486;SDS011;10510;47.942;9.442;2023-07-31T00:01:36;5.03;;;1.63;;
11486;SDS011;10510;47.942;9.442;2023-07-31T00:03:36;3.80;;;1.70;;
11486;SDS011;10510;47.942;9.442;2023-07-31T00:05:36;3.28;;;1.52;;
11486;SDS011;10510;47.942;9.442;2023-07-31T00:07:36;4.10;;;1.90;;
11486;SDS011;10510;47.942;9.442;2023-07-31T00:09:37;3.40;;;1.85;;
11486;SDS011;10510;47.942;9.442;2023-07-31T00:11:37;11.23;;;2.03;;
11486;SDS011;10510;47.942;9.442;2023-07-31T00:13:38;5.07;;;1.60;;
11486;SDS011;10510;47.942;9.442;2023-07-31T00:15:38;5.63;;;1.80;;
11486;SDS011;10510;47.942;9.442;2023-07-31T00:17:38;6.78;;;1.80;;
11486;SDS011;10510;47.942;9.442;2023-07-31T00:19:39;3.75;;;2.00;;
11486;SDS011;10510;47.942;9.442;2023-07-31T00:21:39;5.10;;;1.95;;
11486;SDS011;10510;47.942;9.442;2023-07-31T00:23:39;5.85;;;1.85;;
11486;SDS011;10510;47.942;9.442;2023-07-31T00:25:39;3.70;;;1.80;;
11486;SDS011;10510;47.942;9.442;2023-07-31T00:27:40;4.68;;;2.00;;
11486;SDS011;10510;47.942;9.442;2023-07-31T00:29:44;5.50;;;1.88;;
11486;SDS011;10510;47.942;9.442;2023-07-31T00:31:44;5.05;;;2.38;;
11486;SDS011;10510;47.942;9.442;2023-07-31T00:33:44;2.88;;;1.42;;
11486;SDS011;10510;47.942;9.442;2023-07-31T00:35:45;3.15;;;1.50;;
11486;SDS011;10510;47.942;9.442;2023-07-31T00:37:45;3.30;;;1.50;;
11486;SDS011;10510;47.942;9.442;2023-07-31T00:39:45;1.98;;;1.42;;
11486;SDS011;10510;47.942;9.442;2023-07-31T00:41:45;5.25;;;2.13;;
11486;SDS011;10510;47.942;9.442;2023-07-31T00:43:46;5.20;;;1.70;;
11486;SDS011;10510;47.942;9.442;2023-07-31T00:45:46;9.88;;;3.25;;
11486;SDS011;10510;47.942;9.442;2023-07-31T00:47:46;6.63;;;2.42;;
11486;SDS011;10510;47.942;9.442;2023-07-31T00:49:47;4.55;;;1.60;;
11486;SDS011;10510;47.942;9.442;2023-07-31T00:51:48;2.83;;;2.00;;
11486;SDS011;10510;47.942;9.442;2023-07-31T00:53:48;7.68;;;1.90;;
11486;SDS011;10510;47.942;9.442;2023-07-31T00:55:49;3.38;;;2.08;;
11486;SDS011;10510;47.942;9.442;2023-07-31T00:57:49;6.50;;;2.05;;
11486;SDS011;10510;47.942;9.442;2023-07-31T00:59:51;4.45;;;2.25;;
11486;SDS011;10510;47.942;9.442;2023-07-31T01:01:51;2.92;;;1.70;;
11486;SDS011;10510;47.942;9.442;2023-07-31T01:03:52;4.97;;;1.83;;
11486;SDS011;10510;47.942;9.442;2023-07-31T01:10:56;5.32;;;2.00;;
11486;SDS011;10510;47.942;9.442;2023-07-31T01:13:02;4.78;;;2.25;;
11486;SDS011;10510;47.942;9.442;2023-07-31T01:15:07;4.15;;;2.25;;
11486;SDS011;10510;47.942;9.442;2023-07-31T01:17:11;4.50;;;2.10;;
11486;SDS011;10510;47.942;9.442;2023-07-31T01:19:12;4.63;;;2.17;;
11486;SDS011;10510;47.942;9.442;2023-07-31T01:23:58;8.02;;;2.05;;
11486;SDS011;10510;47.942;9.442;2023-07-31T01:26:21;3.42;;;1.80;;
11486;SDS011;10510;47.942;9.442;2023-07-31T01:28:27;3.58;;;1.77;;
11486;SDS011;10510;47.942;9.442;2023-07-31T01:30:37;2.85;;;1.55;;
11486;SDS011;10510;47.942;9.442;2023-07-31T01:32:43;3.63;;;1.83;;
11486;SDS011;10510;47.942;9.442;2023-07-31T01:34:47;4.25;;;1.67;;
11486;SDS011;10510;47.942;9.442;2023-07-31T01:36:48;3.75;;;1.50;;
11486;SDS011;10510;47.942;9.442;2023-07-31T01:38:49;4.95;;;2.10;;
11486;SDS011;10510;47.942;9.442;2023-07-31T01:40:53;5.93;;;1.52;;
11486;SDS011;10510;47.942;9.442;2023-07-31T01:42:53;3.28;;;1.88;;
11486;SDS011;10510;47.942;9.442;2023-07-31T01:44:53;4.85;;;1.95;;
11486;SDS011;10510;47.942;9.442;2023-07-31T01:46:54;2.92;;;1.98;;
11486;SDS011;10510;47.942;9.442;2023-07-31T01:48:54;2.95;;;1.80;;
11486;SDS011;10510;47.942;9.442;2023-07-31T01:50:54;6.80;;;2.40;;
11486;SDS011;10510;47.942;9.442;2023-07-31T01:52:54;5.68;;;1.90;;
11486;SDS011;10510;47.942;9.442;2023-07-31T01:54:55;6.53;;;1.90;;
11486;SDS011;10510;47.942;9.442;2023-07-31T01:56:55;4.78;;;1.67;;
11486;SDS011;10510;47.942;9.442;2023-07-31T01:58:55;4.45;;;2.05;;
11486;SDS011;10510;47.942;9.442;2023-07-31T02:00:55;3.05;;;1.70;;
11486;SDS011;10510;47.942;9.442;2023-07-31T02:02:56;9.25;;;2.05;;
11486;SDS011;10510;47.942;9.442;2023-07-31T02:04:56;5.30;;;1.83;;
11486;SDS011;10510;47.942;9.442;2023-07-31T02:06:56;5.88;;;1.95;;
11486;SDS011;10510;47.942;9.442;2023-07-31T02:08:57;2.45;;;1.67;;
11486;SDS011;10510;47.942;9.442;2023-07-31T02:10:57;5.00;;;1.90;;
11486;SDS011;10510;47.942;9.442;2023-07-31T02:12:57;2.28;;;1.80;;
11486;SDS011;10510;47.942;9.442;2023-07-31T02:14:57;2.08;;;1.83;;
11486;SDS011;10510;47.942;9.442;2023-07-31T02:16:58;6.15;;;1.90;;
11486;SDS011;10510;47.942;9.442;2023-07-31T02:18:58;3.80;;;1.85;;
11486;SDS011;10510;47.942;9.442;2023-07-31T02:20:58;4.78;;;2.35;;
11486;SDS011;10510;47.942;9.442;2023-07-31T02:22:58;3.58;;;2.17;;
11486;SDS011;10510;47.942;9.442;2023-07-31T02:24:59;8.90;;;2.20;;
11486;SDS011;10510;47.942;9.442;2023-07-31T02:26:59;4.57;;;2.20;;
11486;SDS011;10510;47.942;9.442;2023-07-31T02:28:59;4.90;;;1.85;;
11486;SDS011;10510;47.942;9.442;2023-07-31T02:30:59;3.70;;;1.92;;
11486;SDS011;10510;47.942;9.442;2023-07-31T02:33:00;7.10;;;2.10;;
11486;SDS011;10510;47.942;9.442;2023-07-31T02:35:00;4.28;;;1.65;;
11486;SDS011;10510;47.942;9.442;2023-07-31T02:37:00;7.78;;;2.05;;
11486;SDS011;10510;47.942;9.442;2023-07-31T02:39:00;5.00;;;2.25;;
11486;SDS011;10510;47.942;9.442;2023-07-31T02:41:01;3.17;;;1.73;;
11486;SDS011;10510;47.942;9.442;2023-07-31T02:43:01;5.35;;;2.00;;
11486;SDS011;10510;47.942;9.442;2023-07-31T02:45:01;4.05;;;1.75;;
11486;SDS011;10510;47.942;9.442;2023-07-31T02:47:02;5.18;;;2.17;;
11486;SDS011;10510;47.942;9.442;2023-07-31T02:49:03;3.10;;;1.92;;
11486;SDS011;10510;47.942;9.442;2023-07-31T02:51:03;3.78;;;1.92;;
11486;SDS011;10510;47.942;9.442;2023-07-31T02:53:03;3.38;;;1.83;;
11486;SDS011;10510;47.942;9.442;2023-07-31T02:55:04;7.00;;;2.15;;
11486;SDS011;10510;47.942;9.442;2023-07-31T02:57:05;9.40;;;2.10;;
11486;SDS011;10510;47.942;9.442;2023-07-31T02:59:06;5.72;;;2.30;;
11486;SDS011;10510;47.942;9.442;2023-07-31T03:01:06;4.60;;;1.90;;
11486;SDS011;10510;47.942;9.442;2023-07-31T03:03:06;3.70;;;1.90;;
11486;SDS011;10510;47.942;9.442;2023-07-31T03:05:07;4.07;;;1.90;;
11486;SDS011;10510;47.942;9.442;2023-07-31T03:07:07;6.20;;;2.00;;
11486;SDS011;10510;47.942;9.442;2023-07-31T03:09:07;7.90;;;3.20;;
11486;SDS011;10510;47.942;9.442;2023-07-31T03:11:08;5.03;;;2.42;;
11486;SDS011;10510;47.942;9.442;2023-07-31T03:13:08;3.63;;;1.88;;
11486;SDS011;10510;47.942;9.442;2023-07-31T03:15:08;5.38;;;2.08;;
11486;SDS011;10510;47.942;9.442;2023-07-31T03:17:09;2.67;;;1.73;;
11486;SDS011;10510;47.942;9.442;2023-07-31T03:19:09;7.72;;;2.20;;
11486;SDS011;10510;47.942;9.442;2023-07-31T03:21:09;5.60;;;1.92;;
11486;SDS011;10510;47.942;9.442;2023-07-31T03:23:10;6.55;;;2.25;;
11486;SDS011;10510;47.942;9.442;2023-07-31T03:25:10;6.30;;;2.08;;
11486;SDS011;10510;47.942;9.442;2023-07-31T03:27:10;4.13;;;2.10;;
11486;SDS011;10510;47.942;9.442;2023-07-31T03:29:11;5.55;;;2.53;;
11486;SDS011;10510;47.942;9.442;2023-07-31T03:31:11;4.80;;;2.28;;
11486;SDS011;10510;47.942;9.442;2023-07-31T03:33:11;7.88;;;2.28;;
11486;SDS011;10510;47.942;9.442;2023-07-31T03:35:11;9.30;;;2.10;;
11486;SDS011;10510;47.942;9.442;2023-07-31T03:37:12;3.53;;;2.10;;
11486;SDS011;10510;47.942;9.442;2023-07-31T03:39:12;5.97;;;1.95;;
11486;SDS011;10510;47.942;9.442;2023-07-31T03:41:13;9.80;;;2.40;;
11486;SDS011;10510;47.942;9.442;2023-07-31T03:43:13;5.28;;;2.10;;
11486;SDS011;10510;47.942;9.442;2023-07-31T03:45:13;4.53;;;2.22;;
11486;SDS011;10510;47.942;9.442;2023-07-31T03:47:14;11.30;;;3.42;;
11486;SDS011;10510;47.942;9.442;2023-07-31T03:49:14;9.45;;;2.72;;
11486;SDS011;10510;47.942;9.442;2023-07-31T03:51:14;5.93;;;2.67;;
11486;SDS011;10510;47.942;9.442;2023-07-31T03:53:16;5.47;;;2.17;;
11486;SDS011;10510;47.942;9.442;2023-07-31T03:55:16;4.05;;;2.60;;
11486;SDS011;10510;47.942;9.442;2023-07-31T03:57:16;4.18;;;2.42;;
11486;SDS011;10510;47.942;9.442;2023-07-31T03:59:16;5.45;;;2.53;;
11486;SDS011;10510;47.942;9.442;2023-07-31T04:01:17;3.20;;;2.17;;
11486;SDS011;10510;47.942;9.442;2023-07-31T04:03:19;5.47;;;2.40;;
11486;SDS011;10510;47.942;9.442;2023-07-31T04:05:19;6.50;;;2.25;;
11486;SDS011;10510;47.942;9.442;2023-07-31T04:07:20;7.35;;;3.45;;
11486;SDS011;10510;47.942;9.442;2023-07-31T04:09:20;4.30;;;3.00;;
11486;SDS011;10510;47.942;9.442;2023-07-31T04:11:20;4.75;;;2.30;;
11486;SDS011;10510;47.942;9.442;2023-07-31T04:13:21;4.72;;;2.30;;
11486;SDS011;10510;47.942;9.442;2023-07-31T04:15:22;5.22;;;2.40;;
11486;SDS011;10510;47.942;9.442;2023-07-31T04:17:22;8.85;;;3.10;;
11486;SDS011;10510;47.942;9.442;2023-07-31T04:19:22;11.75;;;5.10;;
11486;SDS011;10510;47.942;9.442;2023-07-31T04:21:23;8.80;;;4.50;;
11486;SDS011;10510;47.942;9.442;2023-07-31T04:23:23;5.78;;;3.10;;
11486;SDS011;10510;47.942;9.442;2023-07-31T04:25:24;7.90;;;3.55;;
11486;SDS011;10510;47.942;9.442;2023-07-31T04:27:24;4.97;;;2.63;;
11486;SDS011;10510;47.942;9.442;2023-07-31T04:29:24;8.20;;;3.42;;
11486;SDS011;10510;47.942;9.442;2023-07-31T04:31:25;4.68;;;2.30;;
11486;SDS011;10510;47.942;9.442;2023-07-31T04:33:25;7.10;;;2.67;;
11486;SDS011;10510;47.942;9.442;2023-07-31T04:35:25;5.15;;;2.45;;
11486;SDS011;10510;47.942;9.442;2023-07-31T04:37:26;7.65;;;2.55;;
11486;SDS011;10510;47.942;9.442;2023-07-31T04:39:26;4.50;;;2.97;;
11486;SDS011;10510;47.942;9.442;2023-07-31T04:41:26;3.38;;;2.13;;
11486;SDS011;10510;47.942;9.442;2023-07-31T04:43:27;5.43;;;2.35;;
11486;SDS011;10510;47.942;9.442;2023-07-31T04:45:27;3.83;;;2.30;;
11486;SDS011;10510;47.942;9.442;2023-07-31T04:47:27;9.32;;;3.13;;
11486;SDS011;10510;47.942;9.442;2023-07-31T04:49:28;8.43;;;2.28;;
11486;SDS011;10510;47.942;9.442;2023-07-31T04:51:28;4.55;;;2.20;;
11486;SDS011;10510;47.942;9.442;2023-07-31T04:53:28;5.28;;;2.40;;
11486;SDS011;10510;47.942;9.442;2023-07-31T04:55:28;5.03;;;2.50;;
11486;SDS011;10510;47.942;9.442;2023-07-31T04:57:29;3.58;;;2.05;;
11486;SDS011;10510;47.942;9.442;2023-07-31T04:59:29;4.35;;;2.55;;
11486;SDS011;10510;47.942;9.442;2023-07-31T05:01:29;5.65;;;1.90;;
11486;SDS011;10510;47.942;9.442;2023-07-31T05:03:29;5.60;;;2.10;;
11486;SDS011;10510;47.942;9.442;2023-07-31T05:05:30;5.47;;;1.85;;
11486;SDS011;10510;47.942;9.442;2023-07-31T05:07:30;4.97;;;2.42;;
11486;SDS011;10510;47.942;9.442;2023-07-31T05:09:30;3.90;;;2.10;;
11486;SDS011;10510;47.942;9.442;2023-07-31T05:11:31;4.82;;;2.53;;
11486;SDS011;10510;47.942;9.442;2023-07-31T05:13:31;7.85;;;2.30;;
11486;SDS011;10510;47.942;9.442;2023-07-31T05:15:31;5.65;;;1.83;;
11486;SDS011;10510;47.942;9.442;2023-07-31T05:17:32;4.43;;;2.10;;
11486;SDS011;10510;47.942;9.442;2023-07-31T05:19:32;5.65;;;2.10;;
11486;SDS011;10510;47.942;9.442;2023-07-31T05:21:32;6.22;;;2.25;;
11486;SDS011;10510;47.942;9.442;2023-07-31T05:23:32;4.07;;;1.70;;
11486;SDS011;10510;47.942;9.442;2023-07-31T05:25:33;4.60;;;2.20;;
11486;SDS011;10510;47.942;9.442;2023-07-31T05:27:33;8.25;;;2.17;;
11486;SDS011;10510;47.942;9.442;2023-07-31T05:29:33;6.78;;;2.13;;
11486;SDS011;10510;47.942;9.442;2023-07-31T05:31:34;3.97;;;2.05;;
11486;SDS011;10510;47.942;9.442;2023-07-31T05:33:34;3.70;;;1.83;;
11486;SDS011;10510;47.942;9.442;2023-07-31T05:35:34;5.60;;;2.47;;
11486;SDS011;10510;47.942;9.442;2023-07-31T05:37:35;6.03;;;2.47;;
11486;SDS011;10510;47.942;9.442;2023-07-31T05:39:35;5.65;;;2.70;;
11486;SDS011;10510;47.942;9.442;2023-07-31T05:41:35;3.80;;;1.80;;
11486;SDS011;10510;47.942;9.442;2023-07-31T05:43:36;3.90;;;1.90;;
11486;SDS011;10510;47.942;9.442;2023-07-31T05:45:36;2.40;;;1.42;;
11486;SDS011;10510;47.942;9.442;2023-07-31T05:47:36;4.15;;;1.65;;
11486;SDS011;10510;47.942;9.442;2023-07-31T05:49:37;6.95;;;1.50;;
11486;SDS011;10510;47.942;9.442;2023-07-31T05:51:37;2.47;;;1.40;;
11486;SDS011;10510;47.942;9.442;2023-07-31T05:53:37;11.35;;;2.30;;
11486;SDS011;10510;47.942;9.442;2023-07-31T05:55:40;4.60;;;1.90;;
11486;SDS011;10510;47.942;9.442;2023-07-31T05:57:40;4.32;;;1.67;;
11486;SDS011;10510;47.942;9.442;2023-07-31T05:59:41;6.88;;;2.10;;
11486;SDS011;10510;47.942;9.442;2023-07-31T06:01:41;6.53;;;1.70;;
11486;SDS011;10510;47.942;9.442;2023-07-31T06:03:41;3.40;;;1.50;;
11486;SDS011;10510;47.942;9.442;2023-07-31T06:05:41;2.75;;;1.58;;
11486;SDS011;10510;47.942;9.442;2023-07-31T06:07:42;7.15;;;1.83;;
11486;SDS011;10510;47.942;9.442;2023-07-31T06:09:42;3.80;;;1.58;;
11486;SDS011;10510;47.942;9.442;2023-07-31T06:11:42;5.20;;;2.15;;
11486;SDS011;10510;47.942;9.442;2023-07-31T06:13:43;3.92;;;1.30;;
11486;SDS011;10510;47.942;9.442;2023-07-31T06:15:44;6.10;;;1.42;;
11486;SDS011;10510;47.942;9.442;2023-07-31T06:17:45;3.95;;;1.30;;
11486;SDS011;10510;47.942;9.442;2023-07-31T06:19:45;3.33;;;1.50;;
11486;SDS011;10510;47.942;9.442;2023-07-31T06:21:45;7.40;;;1.73;;
11486;SDS011;10510;47.942;9.442;2023-07-31T06:23:46;3.33;;;1.48;;
11486;SDS011;10510;47.942;9.442;2023-07-31T06:25:46;4.07;;;1.40;;
11486;SDS011;10510;47.942;9.442;2023-07-31T06:27:46;4.18;;;1.85;;
11486;SDS011;10510;47.942;9.442;2023-07-31T06:29:47;2.90;;;1.40;;
11486;SDS011;10510;47.942;9.442;2023-07-31T06:31:47;3.15;;;1.60;;
11486;SDS011;10510;47.942;9.442;2023-07-31T06:33:48;3.90;;;1.42;;
11486;SDS011;10510;47.942;9.442;2023-07-31T06:35:49;5.45;;;1.60;;
11486;SDS011;10510;47.942;9.442;2023-07-31T06:37:50;6.35;;;1.40;;
11486;SDS011;10510;47.942;9.442;2023-07-31T06:39:51;6.78;;;1.77;;
11486;SDS011;10510;47.942;9.442;2023-07-31T06:41:51;6.68;;;1.58;;
11486;SDS011;10510;47.942;9.442;2023-07-31T06:43:51;9.05;;;1.60;;
11486;SDS011;10510;47.942;9.442;2023-07-31T06:45:51;6.65;;;1.40;;
11486;SDS011;10510;47.942;9.442;2023-07-31T06:47:52;3.88;;;1.23;;
11486;SDS011;10510;47.942;9.442;2023-07-31T06:49:52;6.22;;;1.50;;
11486;SDS011;10510;47.942;9.442;2023-07-31T06:51:52;4.70;;;1.40;;
11486;SDS011;10510;47.942;9.442;2023-07-31T06:53:52;6.70;;;1.65;;
11486;SDS011;10510;47.942;9.442;2023-07-31T06:55:53;4.70;;;1.50;;
11486;SDS011;10510;47.942;9.442;2023-07-31T06:57:53;4.07;;;1.08;;
11486;SDS011;10510;47.942;9.442;2023-07-31T06:59:55;4.68;;;1.48;;
11486;SDS011;10510;47.942;9.442;2023-07-31T07:01:55;5.03;;;1.13;;
11486;SDS011;10510;47.942;9.442;2023-07-31T07:03:55;8.30;;;1.40;;
11486;SDS011;10510;47.942;9.442;2023-07-31T07:05:56;5.05;;;1.60;;
11486;SDS011;10510;47.942;9.442;2023-07-31T07:07:56;4.93;;;1.77;;
11486;SDS011;10510;47.942;9.442;2023-07-31T07:09:56;3.90;;;1.52;;
11486;SDS011;10510;47.942;9.442;2023-07-31T07:11:56;2.67;;;1.90;;
11486;SDS011;10510;47.942;9.442;2023-07-31T07:13:57;2.47;;;1.20;;
11486;SDS011;10510;47.942;9.442;2023-07-31T07:15:57;4.95;;;1.40;;
11486;SDS011;10510;47.942;9.442;2023-07-31T07:17:57;6.57;;;1.50;;
11486;SDS011;10510;47.942;9.442;2023-07-31T07:19:58;6.95;;;1.75;;
11486;SDS011;10510;47.942;9.442;2023-07-31T07:21:59;6.18;;;1.65;;
11486;SDS011;10510;47.942;9.442;2023-07-31T07:24:01;3.10;;;1.13;;
11486;SDS011;10510;47.942;9.442;2023-07-31T07:26:02;7.22;;;1.27;;
11486;SDS011;10510;47.942;9.442;2023-07-31T07:28:02;10.35;;;1.92;;
11486;SDS011;10510;47.942;9.442;2023-07-31T07:30:02;5.32;;;1.63;;
11486;SDS011;10510;47.942;9.442;2023-07-31T07:32:03;4.97;;;2.45;;
11486;SDS011;10510;47.942;9.442;2023-07-31T07:34:04;3.17;;;1.35;;
11486;SDS011;10510;47.942;9.442;2023-07-31T07:36:04;3.28;;;1.10;;
11486;SDS011;10510;47.942;9.442;2023-07-31T07:38:09;7.35;;;1.60;;
11486;SDS011;10510;47.942;9.442;2023-07-31T07:40:09;3.88;;;1.35;;
11486;SDS011;10510;47.942;9.442;2023-07-31T07:42:10;3.15;;;1.15;;
11486;SDS011;10510;47.942;9.442;2023-07-31T07:44:10;5.13;;;1.58;;
11486;SDS011;10510;47.942;9.442;2023-07-31T07:46:10;6.05;;;1.67;;
11486;SDS011;10510;47.942;9.442;2023-07-31T07:48:11;4.40;;;1.25;;
11486;SDS011;10510;47.942;9.442;2023-07-31T07:50:11;4.07;;;1.50;;
11486;SDS011;10510;47.942;9.442;2023-07-31T07:52:12;6.72;;;1.60;;
11486;SDS011;10510;47.942;9.442;2023-07-31T07:54:12;4.53;;;1.75;;
11486;SDS011;10510;47.942;9.442;2023-07-31T07:56:12;4.80;;;1.48;;
11486;SDS011;10510;47.942;9.442;2023-07-31T07:58:12;5.20;;;1.45;;
11486;SDS011;10510;47.942;9.442;2023-07-31T08:00:13;7.65;;;1.80;;
11486;SDS011;10510;47.942;9.442;2023-07-31T08:02:13;4.30;;;1.80;;
11486;SDS011;10510;47.942;9.442;2023-07-31T08:04:13;5.40;;;1.10;;
11486;SDS011;10510;47.942;9.442;2023-07-31T08:06:14;3.75;;;1.40;;
11486;SDS011;10510;47.942;9.442;2023-07-31T08:08:14;4.82;;;1.23;;
11486;SDS011;10510;47.942;9.442;2023-07-31T08:10:19;5.65;;;1.60;;
11486;SDS011;10510;47.942;9.442;2023-07-31T08:12:19;3.28;;;1.45;;
11486;SDS011;10510;47.942;9.442;2023-07-31T08:14:19;4.07;;;1.30;;
11486;SDS011;10510;47.942;9.442;2023-07-31T08:16:19;8.98;;;1.67;;
11486;SDS011;10510;47.942;9.442;2023-07-31T08:18:20;9.05;;;2.00;;
11486;SDS011;10510;47.942;9.442;2023-07-31T08:20:20;7.85;;;1.55;;
11486;SDS011;10510;47.942;9.442;2023-07-31T08:22:21;4.85;;;1.70;;
11486;SDS011;10510;47.942;9.442;2023-07-31T08:24:22;4.40;;;1.48;;
11486;SDS011;10510;47.942;9.442;2023-07-31T08:26:22;3.10;;;1.15;;
11486;SDS011;10510;47.942;9.442;2023-07-31T08:28:22;3.65;;;1.27;;
11486;SDS011;10510;47.942;9.442;2023-07-31T08:30:23;4.32;;;1.60;;
11486;SDS011;10510;47.942;9.442;2023-07-31T08:32:23;4.65;;;1.45;;
11486;SDS011;10510;47.942;9.442;2023-07-31T08:34:23;6.22;;;1.60;;
11486;SDS011;10510;47.942;9.442;2023-07-31T08:36:23;3.55;;;1.50;;
11486;SDS011;10510;47.942;9.442;2023-07-31T08:38:24;6.40;;;1.63;;
11486;SDS011;10510;47.942;9.442;2023-07-31T08:40:25;5.03;;;1.60;;
11486;SDS011;10510;47.942;9.442;2023-07-31T08:42:26;5.53;;;1.45;;
11486;SDS011;10510;47.942;9.442;2023-07-31T08:44:27;4.70;;;1.60;;
11486;SDS011;10510;47.942;9.442;2023-07-31T08:46:27;3.58;;;1.38;;
11486;SDS011;10510;47.942;9.442;2023-07-31T08:48:28;6.55;;;1.55;;
11486;SDS011;10510;47.942;9.442;2023-07-31T08:50:29;4.22;;;1.30;;
11486;SDS011;10510;47.942;9.442;2023-07-31T08:52:29;6.47;;;1.60;;
11486;SDS011;10510;47.942;9.442;2023-07-31T08:54:30;7.57;;;1.52;;
11486;SDS011;10510;47.942;9.442;2023-07-31T08:56:32;4.82;;;1.45;;
11486;SDS011;10510;47.942;9.442;2023-07-31T08:58:33;8.23;;;2.40;;
11486;SDS011;10510;47.942;9.442;2023-07-31T09:00:35;6.05;;;1.92;;
11486;SDS011;10510;47.942;9.442;2023-07-31T09:02:51;5.63;;;1.50;;
11486;SDS011;10510;47.942;9.442;2023-07-31T09:04:55;9.48;;;1.23;;
11486;SDS011;10510;47.942;9.442;2023-07-31T09:06:57;3.35;;;1.10;;
11486;SDS011;10510;47.942;9.442;2023-07-31T09:09:01;6.80;;;1.33;;
11486;SDS011;10510;47.942;9.442;2023-07-31T09:11:01;5.20;;;1.30;;
11486;SDS011;10510;47.942;9.442;2023-07-31T09:13:05;3.08;;;1.23;;
11486;SDS011;10510;47.942;9.442;2023-07-31T09:15:06;4.25;;;1.45;;
11486;SDS011;10510;47.942;9.442;2023-07-31T09:17:08;4.88;;;1.88;;
11486;SDS011;10510;47.942;9.442;2023-07-31T09:19:08;5.50;;;1.75;;
11486;SDS011;10510;47.942;9.442;2023-07-31T09:21:08;3.95;;;1.35;;
11486;SDS011;10510;47.942;9.442;2023-07-31T09:23:12;3.63;;;1.30;;
11486;SDS011;10510;47.942;9.442;2023-07-31T09:27:18;4.47;;;1.25;;
11486;SDS011;10510;47.942;9.442;2023-07-31T09:29:19;4.50;;;1.27;;
11486;SDS011;10510;47.942;9.442;2023-07-31T09:31:31;5.88;;;0.98;;
11486;SDS011;10510;47.942;9.442;2023-07-31T09:33:47;4.47;;;1.08;;
11486;SDS011;10510;47.942;9.442;2023-07-31T09:35:55;2.58;;;1.15;;
11486;SDS011;10510;47.942;9.442;2023-07-31T09:37:56;3.38;;;1.02;;
11486;SDS011;10510;47.942;9.442;2023-07-31T09:39:58;2.80;;;1.35;;
11486;SDS011;10510;47.942;9.442;2023-07-31T09:41:59;2.10;;;1.10;;
11486;SDS011;10510;47.942;9.442;2023-07-31T09:43:59;4.88;;;1.70;;
11486;SDS011;10510;47.942;9.442;2023-07-31T09:46:00;7.97;;;1.70;;
11486;SDS011;10510;47.942;9.442;2023-07-31T09:48:00;4.40;;;1.63;;
11486;SDS011;10510;47.942;9.442;2023-07-31T09:50:00;4.95;;;1.38;;
11486;SDS011;10510;47.942;9.442;2023-07-31T09:52:00;5.80;;;1.52;;
11486;SDS011;10510;47.942;9.442;2023-07-31T09:54:01;4.32;;;1.33;;
11486;SDS011;10510;47.942;9.442;2023-07-31T09:56:01;3.08;;;1.25;;
11486;SDS011;10510;47.942;9.442;2023-07-31T09:58:05;3.10;;;1.23;;
11486;SDS011;10510;47.942;9.442;2023-07-31T10:00:07;7.75;;;1.15;;
11486;SDS011;10510;47.942;9.442;2023-07-31T10:02:09;5.47;;;1.27;;
11486;SDS011;10510;47.942;9.442;2023-07-31T10:04:16;7.57;;;1.23;;
11486;SDS011;10510;47.942;9.442;2023-07-31T10:06:20;6.80;;;1.85;;
11486;SDS011;10510;47.942;9.442;2023-07-31T10:08:24;4.97;;;1.20;;
11486;SDS011;10510;47.942;9.442;2023-07-31T10:10:29;4.75;;;1.70;;
11486;SDS011;10510;47.942;9.442;2023-07-31T10:12:31;6.72;;;1.75;;
11486;SDS011;10510;47.942;9.442;2023-07-31T10:14:33;4.07;;;1.42;;
11486;SDS011;10510;47.942;9.442;2023-07-31T10:16:33;3.42;;;1.40;;
11486;SDS011;10510;47.942;9.442;2023-07-31T10:18:35;4.60;;;1.50;;
11486;SDS011;10510;47.942;9.442;2023-07-31T10:20:36;3.95;;;2.15;;
11486;SDS011;10510;47.942;9.442;2023-07-31T10:22:37;6.95;;;2.25;;
11486;SDS011;10510;47.942;9.442;2023-07-31T10:24:38;4.85;;;1.55;;
11486;SDS011;10510;47.942;9.442;2023-07-31T10:26:39;5.28;;;1.50;;
11486;SDS011;10510;47.942;9.442;2023-07-31T10:28:45;4.47;;;1.45;;
11486;SDS011;10510;47.942;9.442;2023-07-31T10:30:47;5.80;;;1.38;;
11486;SDS011;10510;47.942;9.442;2023-07-31T10:32:48;6.25;;;1.17;;
11486;SDS011;10510;47.942;9.442;2023-07-31T10:34:50;2.08;;;1.00;;
11486;SDS011;10510;47.942;9.442;2023-07-31T10:37:12;7.18;;;1.63;;
11486;SDS011;10510;47.942;9.442;2023-07-31T10:39:37;3.72;;;1.55;;
11486;SDS011;10510;47.942;9.442;2023-07-31T10:41:39;6.40;;;1.58;;
11486;SDS011;10510;47.942;9.442;2023-07-31T10:43:40;3.88;;;1.30;;
11486;SDS011;10510;47.942;9.442;2023-07-31T10:45:43;4.65;;;1.80;;
11486;SDS011;10510;47.942;9.442;2023-07-31T10:47:44;2.88;;;1.13;;
11486;SDS011;10510;47.942;9.442;2023-07-31T10:49:45;3.72;;;1.80;;
11486;SDS011;10510;47.942;9.442;2023-07-31T10:51:47;6.30;;;1.55;;
11486;SDS011;10510;47.942;9.442;2023-07-31T10:53:47;2.35;;;1.33;;
11486;SDS011;10510;47.942;9.442;2023-07-31T10:55:48;5.63;;;1.48;;
11486;SDS011;10510;47.942;9.442;2023-07-31T10:57:51;4.40;;;1.58;;
11486;SDS011;10510;47.942;9.442;2023-07-31T10:59:53;3.80;;;1.63;;
11486;SDS011;10510;47.942;9.442;2023-07-31T11:02:29;3.38;;;1.58;;
11486;SDS011;10510;47.942;9.442;2023-07-31T11:04:33;3.70;;;2.10;;
11486;SDS011;10510;47.942;9.442;2023-07-31T11:06:33;3.33;;;1.40;;
11486;SDS011;10510;47.942;9.442;2023-07-31T11:08:43;4.53;;;1.60;;
11486;SDS011;10510;47.942;9.442;2023-07-31T11:10:45;4.88;;;1.50;;
11486;SDS011;10510;47.942;9.442;2023-07-31T11:12:46;5.70;;;1.40;;
11486;SDS011;10510;47.942;9.442;2023-07-31T11:14:53;2.53;;;1.30;;
11486;SDS011;10510;47.942;9.442;2023-07-31T11:16:55;3.47;;;1.55;;
11486;SDS011;10510;47.942;9.442;2023-07-31T11:18:55;3.88;;;1.60;;
11486;SDS011;10510;47.942;9.442;2023-07-31T11:20:55;4.38;;;1.80;;
11486;SDS011;10510;47.942;9.442;2023-07-31T11:22:58;4.20;;;1.65;;
11486;SDS011;10510;47.942;9.442;2023-07-31T11:24:59;3.63;;;1.15;;
11486;SDS011;10510;47.942;9.442;2023-07-31T11:26:59;3.63;;;1.35;;
11486;SDS011;10510;47.942;9.442;2023-07-31T11:29:02;4.00;;;1.50;;
11486;SDS011;10510;47.942;9.442;2023-07-31T11:31:10;3.45;;;1.67;;
11486;SDS011;10510;47.942;9.442;2023-07-31T11:33:11;3.28;;;1.27;;
11486;SDS011;10510;47.942;9.442;2023-07-31T11:35:12;5.50;;;1.77;;
11486;SDS011;10510;47.942;9.442;2023-07-31T11:37:12;3.97;;;1.80;;
11486;SDS011;10510;47.942;9.442;2023-07-31T11:39:13;4.75;;;1.90;;
11486;SDS011;10510;47.942;9.442;2023-07-31T11:41:14;5.20;;;2.28;;
11486;SDS011;10510;47.942;9.442;2023-07-31T11:43:18;5.60;;;1.98;;
11486;SDS011;10510;47.942;9.442;2023-07-31T11:45:20;3.28;;;1.40;;
11486;SDS011;10510;47.942;9.442;2023-07-31T11:47:20;3.65;;;1.48;;
11486;SDS011;10510;47.942;9.442;2023-07-31T11:49:20;7.68;;;1.42;;
11486;SDS011;10510;47.942;9.442;2023-07-31T11:51:21;3.28;;;1.45;;
11486;SDS011;10510;47.942;9.442;2023-07-31T11:53:33;4.50;;;1.40;;
11486;SDS011;10510;47.942;9.442;2023-07-31T11:55:36;4.28;;;1.30;;
11486;SDS011;10510;47.942;9.442;2023-07-31T11:57:38;4.85;;;1.75;;
11486;SDS011;10510;47.942;9.442;2023-07-31T11:59:39;2.58;;;1.17;;
11486;SDS011;10510;47.942;9.442;2023-07-31T12:01:40;2.55;;;1.42;;
11486;SDS011;10510;47.942;9.442;2023-07-31T12:03:41;5.53;;;1.45;;
11486;SDS011;10510;47.942;9.442;2023-07-31T12:05:42;3.60;;;1.60;;
11486;SDS011;10510;47.942;9.442;2023-07-31T12:07:46;2.50;;;1.30;;
11486;SDS011;10510;47.942;9.442;2023-07-31T12:09:54;4.40;;;1.60;;
11486;SDS011;10510;47.942;9.442;2023-07-31T12:11:55;2.95;;;1.50;;
11486;SDS011;10510;47.942;9.442;2023-07-31T12:13:55;6.47;;;1.50;;
11486;SDS011;10510;47.942;9.442;2023-07-31T12:15:56;5.13;;;1.40;;
11486;SDS011;10510;47.942;9.442;2023-07-31T12:17:57;2.90;;;1.30;;
11486;SDS011;10510;47.942;9.442;2023-07-31T12:19:58;2.95;;;1.63;;
11486;SDS011;10510;47.942;9.442;2023-07-31T12:21:59;4.47;;;1.48;;